createdAt,value
2023-03-07T00:01:40.443Z,21.10
2023-03-07T00:04:09.073Z,19.50
2023-03-07T00:06:39.761Z,17.70
2023-03-07T00:09:08.460Z,18.00
2023-03-07T00:11:41.595Z,23.50
2023-03-07T00:14:10.394Z,17.90
2023-03-07T00:16:39.240Z,15.40
2023-03-07T00:19:08.381Z,18.10
2023-03-07T00:21:37.738Z,21.90
2023-03-07T00:24:07.351Z,14.00
2023-03-07T00:26:40.195Z,23.00
2023-03-07T00:29:09.605Z,14.50
2023-03-07T00:31:58.209Z,21.90
2023-03-07T00:34:26.668Z,16.10
2023-03-07T00:36:55.286Z,34.90
2023-03-07T00:39:28.187Z,16.40
2023-03-07T00:41:56.793Z,17.10
2023-03-07T00:44:27.354Z,19.80
2023-03-07T00:46:56.619Z,17.80
2023-03-07T00:49:25.682Z,18.40
2023-03-07T00:51:54.960Z,20.80
2023-03-07T00:54:23.876Z,18.20
2023-03-07T00:56:53.949Z,18.60
2023-03-07T00:59:23.832Z,24.80
2023-03-07T01:01:52.890Z,18.80
2023-03-07T01:04:23.126Z,20.80
2023-03-07T01:06:53.070Z,19.60
2023-03-07T01:09:24.023Z,18.40
2023-03-07T01:11:54.114Z,24.30
2023-03-07T01:14:24.271Z,22.90
2023-03-07T01:16:53.160Z,20.50
2023-03-07T01:19:23.267Z,23.10
2023-03-07T01:21:58.625Z,19.80
2023-03-07T01:24:27.406Z,26.10
2023-03-07T01:26:56.534Z,18.90
2023-03-07T01:29:25.992Z,15.30
2023-03-07T01:31:55.093Z,16.80
2023-03-07T01:34:24.421Z,28.60
2023-03-07T01:36:54.303Z,17.30
2023-03-07T01:39:23.227Z,23.60
2023-03-07T01:42:11.801Z,18.80
2023-03-07T01:45:01.925Z,21.00
2023-03-07T01:47:41.142Z,23.10
2023-03-07T01:50:12.788Z,18.90
2023-03-07T01:52:49.545Z,24.40
2023-03-07T01:55:19.592Z,18.20
2023-03-07T01:57:51.958Z,19.80
2023-03-07T02:00:30.970Z,21.10
2023-03-07T02:03:06.467Z,19.10
2023-03-07T02:05:57.544Z,22.80
2023-03-07T02:08:31.622Z,23.20
2023-03-07T02:11:01.295Z,19.50
2023-03-07T02:13:30.484Z,21.60
2023-03-07T02:16:00.311Z,17.70
2023-03-07T02:18:31.282Z,17.00
2023-03-07T02:21:05.538Z,18.80
2023-03-07T02:23:38.380Z,20.70
2023-03-07T02:26:32.709Z,18.10
2023-03-07T02:29:02.693Z,23.00
2023-03-07T02:31:32.313Z,17.90
2023-03-07T02:34:02.121Z,17.00
2023-03-07T02:36:35.253Z,22.50
2023-03-07T02:39:14.938Z,17.70
2023-03-07T02:41:45.284Z,16.80
2023-03-07T02:44:20.920Z,19.80
2023-03-07T02:46:49.809Z,18.60
2023-03-07T02:49:20.014Z,19.60
2023-03-07T02:51:48.796Z,15.50
2023-03-07T02:54:17.328Z,16.40
2023-03-07T02:56:45.997Z,20.30
2023-03-07T02:59:14.420Z,17.40
2023-03-07T03:01:43.558Z,23.70
2023-03-07T03:04:12.294Z,20.60
2023-03-07T03:06:41.400Z,19.60
2023-03-07T03:09:11.757Z,15.40
2023-03-07T03:11:40.741Z,25.40
2023-03-07T03:14:11.229Z,20.00
2023-03-07T03:16:41.529Z,22.50
2023-03-07T03:19:12.137Z,25.10
2023-03-07T03:21:42.338Z,19.10
2023-03-07T03:24:11.087Z,24.20
2023-03-07T03:26:41.782Z,30.00
2023-03-07T03:29:10.836Z,21.30
2023-03-07T03:31:39.554Z,21.10
2023-03-07T03:34:09.794Z,18.20
2023-03-07T03:36:39.393Z,23.40
2023-03-07T03:39:11.251Z,24.50
2023-03-07T03:41:46.056Z,23.50
2023-03-07T03:44:15.370Z,24.70
2023-03-07T03:46:43.912Z,29.30
2023-03-07T03:49:13.840Z,20.20
2023-03-07T03:51:46.103Z,24.80
2023-03-07T03:54:15.299Z,22.40
2023-03-07T03:56:44.637Z,21.00
2023-03-07T03:59:13.218Z,21.50
2023-03-07T04:01:42.464Z,30.00
2023-03-07T04:04:11.458Z,28.50
2023-03-07T04:06:40.586Z,27.30
2023-03-07T04:09:12.669Z,21.30
2023-03-07T04:11:45.593Z,21.50
2023-03-07T04:14:14.984Z,21.40
2023-03-07T04:16:45.087Z,18.40
2023-03-07T04:19:14.361Z,22.60
2023-03-07T04:21:44.746Z,19.20
2023-03-07T04:24:19.900Z,16.30
2023-03-07T04:26:49.002Z,22.80
2023-03-07T04:29:17.524Z,22.00
2023-03-07T04:31:53.001Z,23.50
2023-03-07T04:34:21.883Z,22.00
2023-03-07T04:36:50.754Z,21.10
2023-03-07T04:39:20.106Z,24.60
2023-03-07T04:41:48.900Z,20.40
2023-03-07T04:44:21.421Z,24.70
2023-03-07T04:46:50.094Z,20.20
2023-03-07T04:49:19.515Z,19.70
2023-03-07T04:51:48.373Z,26.20
2023-03-07T04:54:21.984Z,23.80
2023-03-07T04:56:51.762Z,25.20
2023-03-07T04:59:21.469Z,21.40
2023-03-07T05:01:50.814Z,25.60
2023-03-07T05:04:19.799Z,19.10
2023-03-07T05:06:49.102Z,20.30
2023-03-07T05:09:18.192Z,22.50
2023-03-07T05:11:47.244Z,24.40
2023-03-07T05:14:16.341Z,21.60
2023-03-07T05:16:45.173Z,22.20
2023-03-07T05:19:13.733Z,24.70
2023-03-07T05:22:03.487Z,22.90
2023-03-07T05:24:41.047Z,23.70
2023-03-07T05:27:11.312Z,22.40
2023-03-07T05:29:40.056Z,17.40
2023-03-07T05:32:08.754Z,27.90
2023-03-07T05:34:40.812Z,24.90
2023-03-07T05:37:10.329Z,55.20
2023-03-07T05:39:39.417Z,35.00
2023-03-07T05:42:08.124Z,91.30
2023-03-07T05:44:38.213Z,50.70
2023-03-07T05:47:07.420Z,24.30
2023-03-07T05:49:37.063Z,28.90
2023-03-07T05:52:06.137Z,23.30
2023-03-07T05:54:34.974Z,21.00
2023-03-07T05:57:03.906Z,19.20
2023-03-07T05:59:32.731Z,20.80
2023-03-07T06:02:02.734Z,22.30
2023-03-07T06:04:32.224Z,21.30
2023-03-07T06:07:01.127Z,25.20
2023-03-07T06:09:31.093Z,34.50
2023-03-07T06:12:00.271Z,25.90
2023-03-07T06:14:38.130Z,20.20
2023-03-07T06:17:07.292Z,25.20
2023-03-07T06:19:36.234Z,18.60
2023-03-07T06:22:09.200Z,34.80
2023-03-07T06:24:38.938Z,23.90
2023-03-07T06:27:07.816Z,41.10
2023-03-07T06:29:37.098Z,28.10
2023-03-07T06:32:06.654Z,25.30
2023-03-07T06:34:35.777Z,41.60
2023-03-07T06:37:04.661Z,25.90
2023-03-07T06:39:34.532Z,57.80
2023-03-07T06:42:03.805Z,38.70
2023-03-07T06:44:32.372Z,35.00
2023-03-07T06:47:06.119Z,43.50
2023-03-07T06:49:36.393Z,41.90
2023-03-07T06:52:06.036Z,41.50
2023-03-07T06:54:40.427Z,50.60
2023-03-07T06:57:09.063Z,34.30
2023-03-07T06:59:38.337Z,38.00
2023-03-07T07:02:07.584Z,33.60
2023-03-07T07:04:36.701Z,56.20
2023-03-07T07:07:08.325Z,44.90
2023-03-07T07:09:38.192Z,26.70
2023-03-07T07:12:07.356Z,37.40
2023-03-07T07:14:43.282Z,29.60
2023-03-07T07:17:12.695Z,32.50
2023-03-07T07:19:41.416Z,36.50
2023-03-07T07:22:12.362Z,39.60
2023-03-07T07:24:41.955Z,32.90
2023-03-07T07:27:12.563Z,26.40
2023-03-07T07:29:41.932Z,31.40
2023-03-07T07:32:11.329Z,25.10
2023-03-07T07:34:40.490Z,27.40
2023-03-07T07:37:09.589Z,29.50
2023-03-07T07:39:43.247Z,24.90
2023-03-07T07:42:12.601Z,32.70
2023-03-07T07:44:51.523Z,22.40
2023-03-07T07:47:23.888Z,22.20
2023-03-07T07:49:53.270Z,22.80
2023-03-07T07:52:23.231Z,25.10
2023-03-07T07:54:52.731Z,23.20
2023-03-07T07:57:22.746Z,22.60
2023-03-07T07:59:52.145Z,22.00
2023-03-07T08:02:21.212Z,29.10
2023-03-07T08:04:50.417Z,26.90
2023-03-07T08:07:19.989Z,24.40
2023-03-07T08:09:49.010Z,21.30
2023-03-07T08:12:20.009Z,21.20
2023-03-07T08:14:48.893Z,19.30
2023-03-07T08:17:17.418Z,30.20
2023-03-07T08:19:50.520Z,20.50
2023-03-07T08:22:19.717Z,18.40
2023-03-07T08:24:51.829Z,22.50
2023-03-07T08:27:20.670Z,23.20
2023-03-07T08:29:50.420Z,19.20
2023-03-07T08:32:19.196Z,33.30
2023-03-07T08:34:48.802Z,27.10
2023-03-07T08:37:17.504Z,24.40
2023-03-07T08:39:46.184Z,28.80
2023-03-07T08:42:15.292Z,30.80
2023-03-07T08:44:44.130Z,20.80
2023-03-07T08:47:13.731Z,25.80
2023-03-07T08:49:42.813Z,21.10
2023-03-07T08:52:12.401Z,23.70
2023-03-07T08:54:41.493Z,23.70
2023-03-07T08:57:11.046Z,29.50
2023-03-07T08:59:40.313Z,28.60
2023-03-07T09:02:13.706Z,19.90
2023-03-07T09:04:42.463Z,26.90
2023-03-07T09:07:11.544Z,27.70
2023-03-07T09:09:42.513Z,23.00
2023-03-07T09:12:14.754Z,24.20
2023-03-07T09:14:44.096Z,30.80
2023-03-07T09:17:13.383Z,25.00
2023-03-07T09:19:43.533Z,22.10
2023-03-07T09:22:13.009Z,22.50
2023-03-07T09:24:48.560Z,26.20
2023-03-07T09:27:17.593Z,22.50
2023-03-07T09:29:47.483Z,18.90
2023-03-07T09:32:17.864Z,25.70
2023-03-07T09:34:47.864Z,29.30
2023-03-07T09:37:16.623Z,26.80
2023-03-07T09:39:45.537Z,28.80
2023-03-07T09:42:24.618Z,28.00
2023-03-07T09:45:08.733Z,27.50
2023-03-07T09:47:59.366Z,28.80
2023-03-07T09:50:42.004Z,23.20
2023-03-07T09:53:18.293Z,23.80
2023-03-07T09:55:47.579Z,30.30
2023-03-07T09:58:21.885Z,26.20
2023-03-07T10:00:55.193Z,51.50
2023-03-07T10:03:42.088Z,28.40
2023-03-07T10:06:33.790Z,25.20
2023-03-07T10:09:07.676Z,32.20
2023-03-07T10:12:08.356Z,23.50
2023-03-07T10:15:03.795Z,24.10
2023-03-07T10:17:59.498Z,21.60
2023-03-07T10:20:48.791Z,28.00
2023-03-07T10:23:46.212Z,22.40
2023-03-07T10:26:18.717Z,21.80
2023-03-07T10:31:30.047Z,28.20
2023-03-07T10:33:59.489Z,16.80
2023-03-07T10:36:43.740Z,19.80
2023-03-07T10:39:39.743Z,24.80
2023-03-07T10:42:15.408Z,21.40
2023-03-07T10:44:46.257Z,20.30
2023-03-07T10:47:24.876Z,33.30
2023-03-07T10:50:00.691Z,25.30
2023-03-07T10:52:33.039Z,26.20
2023-03-07T10:55:40.019Z,34.80
2023-03-07T10:58:15.284Z,36.40
2023-03-07T11:00:44.815Z,29.40
2023-03-07T11:03:24.437Z,27.80
2023-03-07T11:05:55.092Z,28.70
2023-03-07T11:08:35.662Z,29.10
2023-03-07T11:11:05.086Z,32.60
2023-03-07T11:13:36.783Z,32.80
2023-03-07T11:16:21.953Z,38.10
2023-03-07T11:18:57.755Z,31.50
2023-03-07T11:21:30.586Z,28.60
2023-03-07T11:24:07.016Z,35.00
2023-03-07T11:26:40.501Z,31.00
2023-03-07T11:29:13.995Z,32.70
2023-03-07T11:31:49.355Z,32.80
2023-03-07T11:34:42.566Z,37.10
2023-03-07T11:37:30.336Z,35.10
2023-03-07T11:40:29.131Z,28.50
2023-03-07T11:43:37.963Z,30.60
2023-03-07T11:46:13.546Z,32.90
2023-03-07T11:49:02.435Z,33.10
2023-03-07T11:51:50.357Z,36.10
2023-03-07T11:54:43.419Z,32.00
2023-03-07T11:57:43.866Z,30.80
2023-03-07T12:00:35.202Z,32.20
2023-03-07T12:03:25.836Z,24.00
2023-03-07T12:06:15.576Z,29.00
2023-03-07T12:08:59.225Z,33.60
2023-03-07T12:11:32.757Z,26.80
2023-03-07T12:14:07.377Z,38.10
2023-03-07T12:17:08.444Z,26.60
2023-03-07T12:19:54.576Z,17.90
2023-03-07T12:22:41.144Z,24.80
2023-03-07T12:25:29.132Z,25.90
2023-03-07T12:28:27.716Z,24.60
2023-03-07T12:31:00.817Z,23.20
2023-03-07T12:33:54.534Z,28.70
2023-03-07T12:36:48.529Z,25.30
2023-03-07T12:39:44.821Z,30.10
2023-03-07T12:42:39.079Z,26.70
2023-03-07T12:45:07.773Z,23.40
2023-03-07T12:47:40.103Z,17.60
2023-03-07T12:50:41.700Z,20.00
2023-03-07T12:53:34.086Z,21.90
2023-03-07T12:56:18.453Z,19.10
2023-03-07T12:58:55.047Z,20.60
2023-03-07T13:01:30.479Z,22.70
2023-03-07T13:04:18.924Z,17.10
2023-03-07T13:06:47.619Z,14.30
2023-03-07T13:09:27.551Z,19.30
2023-03-07T13:12:16.797Z,15.10
2023-03-07T13:14:51.713Z,16.00
2023-03-07T13:17:27.061Z,15.70
2023-03-07T13:20:03.682Z,26.50
2023-03-07T13:22:36.913Z,27.90
2023-03-07T13:25:22.592Z,28.70
2023-03-07T13:27:54.462Z,22.80
2023-03-07T13:30:24.590Z,23.90
2023-03-07T13:32:56.411Z,22.40
2023-03-07T13:35:30.771Z,22.00
2023-03-07T13:38:24.816Z,19.90
2023-03-07T13:41:01.255Z,19.60
2023-03-07T13:43:30.880Z,18.70
2023-03-07T13:46:04.575Z,18.20
2023-03-07T13:48:36.790Z,20.30
2023-03-07T13:51:09.568Z,18.10
2023-03-07T13:53:53.481Z,25.80
2023-03-07T13:56:28.260Z,18.70
2023-03-07T13:59:12.270Z,21.00
2023-03-07T14:02:01.470Z,18.50
2023-03-07T14:04:46.877Z,19.40
2023-03-07T14:07:20.029Z,22.70
2023-03-07T14:09:56.732Z,16.10
2023-03-07T14:13:01.229Z,16.70
2023-03-07T14:15:40.130Z,20.70
2023-03-07T14:18:19.836Z,13.40
2023-03-07T14:21:18.343Z,17.50
2023-03-07T14:23:56.481Z,17.30
2023-03-07T14:26:33.799Z,16.10
2023-03-07T14:29:26.789Z,18.30
2023-03-07T14:31:57.387Z,13.30
2023-03-07T14:34:34.528Z,18.50
2023-03-07T14:37:05.346Z,14.00
2023-03-07T14:39:56.084Z,16.60
2023-03-07T14:42:56.912Z,16.70
2023-03-07T14:45:42.029Z,16.80
2023-03-07T14:48:20.302Z,16.40
2023-03-07T14:50:49.641Z,19.10
2023-03-07T14:53:23.645Z,17.70
2023-03-07T14:55:54.686Z,17.00
2023-03-07T14:58:28.831Z,19.50
2023-03-07T15:01:11.905Z,16.50
2023-03-07T15:03:48.781Z,16.80
2023-03-07T15:06:23.380Z,19.50
2023-03-07T15:08:52.450Z,20.30
2023-03-07T15:11:36.345Z,23.70
2023-03-07T15:14:07.703Z,22.90
2023-03-07T15:16:51.937Z,25.10
2023-03-07T15:19:23.872Z,28.00
2023-03-07T15:21:57.153Z,21.30
2023-03-07T15:24:39.195Z,23.90
2023-03-07T15:27:11.064Z,125.60
2023-03-07T15:29:46.411Z,54.20
2023-03-07T15:32:36.210Z,28.10
2023-03-07T15:35:39.824Z,26.60
2023-03-07T15:38:36.644Z,21.80
2023-03-07T15:41:25.249Z,20.50
2023-03-07T15:44:04.952Z,30.00
2023-03-07T15:46:33.947Z,33.80
2023-03-07T15:49:02.953Z,29.60
2023-03-07T15:51:36.833Z,30.00
2023-03-07T15:54:29.237Z,22.80
2023-03-07T15:56:59.914Z,26.00
2023-03-07T15:59:29.577Z,25.60
2023-03-07T16:01:58.070Z,20.90
2023-03-07T16:04:31.138Z,29.20
2023-03-07T16:06:59.843Z,30.80
2023-03-07T16:09:28.622Z,34.30
2023-03-07T16:11:57.319Z,32.90
2023-03-07T16:14:29.345Z,29.00
2023-03-07T16:17:03.873Z,29.10
2023-03-07T16:19:32.908Z,30.40
2023-03-07T16:22:01.652Z,39.60
2023-03-07T16:24:30.745Z,30.50
2023-03-07T16:26:59.812Z,35.00
2023-03-07T16:29:28.668Z,37.90
2023-03-07T16:32:01.562Z,40.60
2023-03-07T16:34:35.682Z,41.20
2023-03-07T16:37:04.798Z,42.50
2023-03-07T16:39:34.089Z,35.10
2023-03-07T16:42:03.397Z,30.70
2023-03-07T16:44:32.250Z,35.30
2023-03-07T16:47:06.129Z,33.50
2023-03-07T16:49:35.844Z,30.10
2023-03-07T16:52:12.249Z,36.60
2023-03-07T16:54:41.384Z,33.20
2023-03-07T16:59:45.480Z,33.70
2023-03-07T17:02:21.445Z,35.30
2023-03-07T17:04:50.724Z,36.50
2023-03-07T17:07:22.179Z,37.30
2023-03-07T17:09:52.039Z,40.50
2023-03-07T17:12:24.788Z,43.40
2023-03-07T17:14:59.416Z,51.00
2023-03-07T17:17:33.737Z,43.60
2023-03-07T17:20:06.322Z,40.90
2023-03-07T17:22:35.741Z,44.70
2023-03-07T17:25:05.944Z,41.00
2023-03-07T17:27:35.003Z,40.10
2023-03-07T17:30:05.756Z,42.80
2023-03-07T17:32:34.738Z,38.20
2023-03-07T17:35:03.809Z,39.00
2023-03-07T17:37:32.999Z,38.70
2023-03-07T17:40:10.358Z,37.30
2023-03-07T17:42:42.610Z,34.50
2023-03-07T17:45:12.845Z,38.40
2023-03-07T17:47:41.560Z,37.70
2023-03-07T17:50:11.240Z,38.20
2023-03-07T17:52:40.278Z,38.10
2023-03-07T17:55:10.206Z,32.80
2023-03-07T17:57:39.895Z,39.80
2023-03-07T18:00:13.357Z,39.80
2023-03-07T18:02:45.759Z,34.90
2023-03-07T18:05:14.719Z,32.80
2023-03-07T18:07:43.621Z,41.70
2023-03-07T18:10:15.970Z,46.40
2023-03-07T18:12:46.416Z,47.30
2023-03-07T18:15:16.589Z,52.70
2023-03-07T18:17:49.147Z,52.90
2023-03-07T18:20:22.947Z,55.70
2023-03-07T18:22:51.903Z,52.80
2023-03-07T18:25:20.972Z,52.90
2023-03-07T18:27:50.272Z,53.90
2023-03-07T18:30:20.254Z,69.10
2023-03-07T18:32:55.587Z,75.40
2023-03-07T18:35:24.507Z,78.80
2023-03-07T18:37:53.158Z,76.70
2023-03-07T18:40:23.086Z,78.20
2023-03-07T18:42:52.566Z,74.20
2023-03-07T18:45:21.304Z,71.00
2023-03-07T18:47:52.211Z,75.00
2023-03-07T18:50:21.065Z,66.40
2023-03-07T18:52:54.058Z,49.90
2023-03-07T18:55:23.372Z,43.70
2023-03-07T18:57:52.237Z,35.10
2023-03-07T19:00:21.692Z,43.70
2023-03-07T19:02:50.583Z,41.60
2023-03-07T19:05:20.497Z,44.70
2023-03-07T19:07:49.992Z,52.20
2023-03-07T19:10:19.097Z,50.10
2023-03-07T19:12:50.067Z,48.10
2023-03-07T19:15:19.235Z,45.20
2023-03-07T19:17:49.795Z,44.70
2023-03-07T19:20:18.656Z,50.20
2023-03-07T19:22:47.551Z,54.80
2023-03-07T19:25:21.739Z,44.50
2023-03-07T19:27:50.512Z,64.90
2023-03-07T19:30:20.981Z,59.50
2023-03-07T19:32:49.991Z,57.50
2023-03-07T19:35:19.322Z,45.70
2023-03-07T19:37:48.149Z,49.00
2023-03-07T19:40:16.972Z,44.40
2023-03-07T19:42:45.709Z,46.80
2023-03-07T19:45:20.236Z,38.90
2023-03-07T19:47:52.267Z,45.60
2023-03-07T19:50:21.701Z,46.20
2023-03-07T19:52:51.234Z,38.80
2023-03-07T19:55:20.496Z,36.60
2023-03-07T19:57:49.780Z,41.60
2023-03-07T20:00:20.624Z,46.80
2023-03-07T20:02:49.459Z,39.30
2023-03-07T20:05:18.860Z,41.20
2023-03-07T20:07:50.209Z,39.70
2023-03-07T20:10:19.642Z,40.30
2023-03-07T20:12:49.301Z,36.20
2023-03-07T20:15:19.250Z,39.40
2023-03-07T20:17:50.376Z,30.40
2023-03-07T20:20:19.299Z,46.30
2023-03-07T20:22:57.315Z,38.00
2023-03-07T20:25:30.037Z,34.70
2023-03-07T20:27:59.856Z,31.30
2023-03-07T20:30:32.430Z,40.70
2023-03-07T20:33:05.027Z,39.40
2023-03-07T20:35:34.800Z,37.30
2023-03-07T20:38:03.926Z,37.40
2023-03-07T20:40:33.211Z,34.60
2023-03-07T20:43:03.399Z,44.60
2023-03-07T20:45:32.855Z,36.30
2023-03-07T20:48:02.843Z,36.40
2023-03-07T20:50:31.950Z,39.30
2023-03-07T20:53:01.734Z,36.10
2023-03-07T20:55:31.124Z,32.10
2023-03-07T20:58:00.075Z,41.50
2023-03-07T21:00:29.000Z,39.40
2023-03-07T21:03:05.688Z,40.70
2023-03-07T21:05:36.327Z,47.00
2023-03-07T21:08:05.875Z,56.00
2023-03-07T21:10:34.697Z,44.40
2023-03-07T21:13:05.548Z,48.70
2023-03-07T21:15:36.005Z,53.00
2023-03-07T21:18:05.202Z,44.60
2023-03-07T21:20:34.407Z,40.20
2023-03-07T21:23:23.070Z,40.00
2023-03-07T21:26:06.644Z,45.10
2023-03-07T21:28:35.947Z,48.20
2023-03-07T21:31:32.082Z,48.20
2023-03-07T21:34:05.201Z,52.30
2023-03-07T21:36:34.140Z,62.60
2023-03-07T21:39:05.520Z,53.30
2023-03-07T21:41:34.717Z,40.70
2023-03-07T21:44:04.835Z,40.60
2023-03-07T21:46:34.200Z,36.80
2023-03-07T21:49:03.136Z,40.10
2023-03-07T21:51:32.191Z,41.80
2023-03-07T21:54:01.052Z,42.20
2023-03-07T21:56:30.012Z,48.20
2023-03-07T21:58:58.829Z,45.60
2023-03-07T22:01:29.419Z,46.90
2023-03-07T22:04:02.030Z,49.30
2023-03-07T22:06:31.254Z,38.80
2023-03-07T22:09:01.432Z,45.60
2023-03-07T22:11:30.104Z,43.80
2023-03-07T22:13:59.826Z,46.10
2023-03-07T22:16:29.826Z,45.50
2023-03-07T22:18:58.684Z,42.60
2023-03-07T22:21:27.965Z,67.20
2023-03-07T22:23:58.208Z,60.50
2023-03-07T22:26:28.016Z,53.50
2023-03-07T22:28:57.059Z,51.50
2023-03-07T22:31:26.111Z,48.10
2023-03-07T22:33:55.115Z,55.60
2023-03-07T22:36:25.085Z,52.50
2023-03-07T22:38:55.430Z,43.10
2023-03-07T22:41:24.595Z,43.90
2023-03-07T22:43:53.842Z,45.90
2023-03-07T22:46:22.774Z,47.10
2023-03-07T22:48:53.638Z,48.50
2023-03-07T22:51:23.993Z,47.70
2023-03-07T22:53:54.002Z,51.30
2023-03-07T22:56:24.716Z,52.50
2023-03-07T22:58:59.297Z,57.80
2023-03-07T23:01:29.064Z,67.70
2023-03-07T23:03:58.638Z,164.30
2023-03-07T23:06:29.539Z,103.90
2023-03-07T23:08:59.917Z,69.80
2023-03-07T23:11:32.959Z,101.50
2023-03-07T23:14:01.906Z,67.30
2023-03-07T23:16:31.293Z,75.70
2023-03-07T23:19:03.816Z,45.30
2023-03-07T23:21:33.173Z,40.80
2023-03-07T23:24:05.035Z,135.20
2023-03-07T23:26:35.969Z,49.00
2023-03-07T23:29:07.344Z,122.90
2023-03-07T23:31:37.690Z,84.70
2023-03-07T23:34:08.788Z,80.90
2023-03-07T23:36:43.183Z,86.40
2023-03-07T23:39:12.004Z,69.70
2023-03-07T23:41:40.166Z,74.10
2023-03-07T23:44:10.209Z,59.00
2023-03-07T23:46:38.898Z,63.40
2023-03-07T23:49:10.983Z,58.40
2023-03-07T23:51:40.088Z,44.50
2023-03-07T23:54:09.228Z,81.90
2023-03-07T23:56:37.862Z,48.40
2023-03-07T23:59:06.009Z,42.80
